Time;durP1;ratioP1;P1;durP2;ratioP2;P2;SDS_P1;SDS_P2;PMS_P1;PMS_P2;Temp;Humidity;BMP_temperature;BMP_pressure;BME280_temperature;BME280_humidity;BME280_pressure;Samples;Min_cycle;Max_cycle;Signal;HPM_P1;HPM_P2
2023/10/13 00:00:29;;;;;;;11.80;8.13;;;;;;;17.22;100.00;98230.56;5080286;28;20207;-82
2023/10/13 00:02:59;;;;;;;12.63;7.37;;;;;;;17.20;100.00;98224.50;5079140;28;20229;-82
2023/10/13 00:05:29;;;;;;;10.00;7.13;;;;;;;17.18;100.00;98223.81;5079856;28;20215;-82
2023/10/13 00:07:55;;;;;;;10.73;6.93;;;;;;;17.11;100.00;98222.72;5080787;28;20338;-82
2023/10/13 00:10:22;;;;;;;11.77;7.67;;;;;;;17.06;100.00;98219.63;5079329;28;20505;-83
2023/10/13 00:12:50;;;;;;;10.07;7.53;;;;;;;17.03;100.00;98219.09;5078970;28;20314;-81
2023/10/13 00:15:27;;;;;;;10.33;7.00;;;;;;;16.96;100.00;98217.97;5079497;28;20208;-81
2023/10/13 00:17:55;;;;;;;10.70;6.43;;;;;;;16.84;100.00;98211.97;5077829;28;20211;-81
2023/10/13 00:20:35;;;;;;;11.37;7.23;;;;;;;16.72;100.00;98210.44;5079996;28;20219;-81
2023/10/13 00:23:03;;;;;;;11.23;7.77;;;;;;;16.64;99.68;98204.13;5078173;28;20207;-81
2023/10/13 00:25:34;;;;;;;12.27;7.53;;;;;;;16.55;98.93;98203.13;5079237;28;20215;-81
2023/10/13 00:28:01;;;;;;;11.00;7.60;;;;;;;16.47;98.62;98202.16;5080030;28;20209;-81
2023/10/13 00:30:33;;;;;;;12.77;8.00;;;;;;;16.40;98.88;98199.19;5079518;28;20212;-81
2023/10/13 00:33:00;;;;;;;9.73;7.30;;;;;;;16.31;99.54;98205.34;5080252;28;20223;-81
2023/10/13 00:35:28;;;;;;;10.50;7.77;;;;;;;16.21;100.00;98204.50;5080201;28;20226;-81
2023/10/13 00:37:55;;;;;;;10.10;7.27;;;;;;;16.12;100.00;98206.31;5077173;28;20207;-81
2023/10/13 00:40:42;;;;;;;13.20;7.67;;;;;;;16.12;100.00;98203.66;5077240;28;20211;-81
2023/10/13 00:46:07;;;;;;;11.90;8.03;;;;;;;15.98;100.00;98196.03;5065624;28;20293;-82
2023/10/13 00:48:42;;;;;;;11.97;7.87;;;;;;;15.89;100.00;98194.22;5077502;28;20191;-82
2023/10/13 00:51:12;;;;;;;11.10;8.17;;;;;;;15.82;100.00;98206.41;5076915;28;20222;-82
2023/10/13 00:53:41;;;;;;;14.77;8.30;;;;;;;15.77;100.00;98213.97;5077221;28;20199;-82
2023/10/13 00:56:18;;;;;;;12.43;7.80;;;;;;;15.76;100.00;98212.28;5077475;28;20226;-82
2023/10/13 00:58:46;;;;;;;11.20;7.30;;;;;;;15.71;100.00;98206.50;5078189;28;20207;-82
2023/10/13 01:01:21;;;;;;;10.57;7.33;;;;;;;15.70;100.00;98199.50;5077932;28;20231;-82
2023/10/13 01:03:48;;;;;;;11.60;7.07;;;;;;;15.70;100.00;98204.81;5076994;28;20237;-82
2023/10/13 01:06:16;;;;;;;12.47;7.00;;;;;;;15.77;99.46;98205.97;5077707;28;20204;-82
2023/10/13 01:08:44;;;;;;;10.10;6.53;;;;;;;15.86;96.90;98197.13;5078540;28;20562;-82
2023/10/13 01:11:13;;;;;;;9.13;6.00;;;;;;;15.90;95.30;98193.22;5078411;28;20227;-82
2023/10/13 01:13:41;;;;;;;9.77;5.57;;;;;;;15.93;94.93;98180.47;5076946;28;20207;-82
2023/10/13 01:16:08;;;;;;;11.03;5.70;;;;;;;15.95;94.08;98175.81;5078179;28;20271;-82
2023/10/13 01:18:39;;;;;;;10.10;5.97;;;;;;;15.96;92.76;98179.34;5077713;28;20220;-82
2023/10/13 01:21:06;;;;;;;8.90;5.07;;;;;;;15.97;91.25;98173.03;5077022;28;20254;-82
2023/10/13 01:23:38;;;;;;;9.73;5.63;;;;;;;16.02;89.80;98166.28;5076794;28;20232;-82
2023/10/13 01:26:05;;;;;;;8.77;5.17;;;;;;;16.02;88.40;98162.78;5077867;28;20203;-81
2023/10/13 01:28:44;;;;;;;8.30;5.67;;;;;;;15.95;89.18;98164.34;5077801;28;20600;-82
2023/10/13 01:31:12;;;;;;;10.40;5.47;;;;;;;15.93;88.28;98152.94;5076563;28;20276;-82
2023/10/13 01:33:38;;;;;;;7.37;5.50;;;;;;;15.89;88.45;98156.88;5076463;28;20217;-81
2023/10/13 01:36:08;;;;;;;6.67;4.67;;;;;;;15.83;88.75;98160.94;5077230;28;20208;-81
2023/10/13 01:38:38;;;;;;;8.03;4.47;;;;;;;15.81;88.43;98151.38;5077202;28;20265;-82
2023/10/13 01:41:05;;;;;;;7.90;4.87;;;;;;;15.79;88.11;98153.34;5076283;28;20249;-82
2023/10/13 01:43:31;;;;;;;10.23;5.17;;;;;;;15.76;88.19;98148.31;5076495;28;20722;-81
2023/10/13 01:45:57;;;;;;;5.77;4.50;;;;;;;15.73;88.34;98149.44;5075890;28;20594;-82
2023/10/13 01:48:23;;;;;;;7.13;4.80;;;;;;;15.76;87.87;98148.31;5075734;28;20223;-81
2023/10/13 01:50:55;;;;;;;8.27;5.07;;;;;;;15.78;86.65;98149.00;5076466;28;20254;-82
2023/10/13 01:53:22;;;;;;;6.67;4.57;;;;;;;15.84;83.63;98135.13;5074730;28;20247;-82
2023/10/13 01:55:50;;;;;;;8.10;5.30;;;;;;;15.88;82.11;98128.56;5076312;28;20208;-82
2023/10/13 01:58:17;;;;;;;8.20;4.73;;;;;;;15.90;81.52;98130.09;5076432;28;20262;-82
2023/10/13 02:00:44;;;;;;;7.57;4.47;;;;;;;15.95;80.70;98117.19;5076100;28;20743;-82
2023/10/13 02:03:15;;;;;;;5.50;4.30;;;;;;;15.94;80.47;98120.00;5074716;28;20290;-82
2023/10/13 02:05:46;;;;;;;6.73;4.37;;;;;;;15.91;80.03;98122.94;5074576;28;20234;-82
2023/10/13 02:08:17;;;;;;;5.33;3.30;;;;;;;15.88;80.27;98121.38;5075305;28;20239;-82
2023/10/13 02:10:43;;;;;;;6.17;3.60;;;;;;;15.86;79.70;98111.84;5076636;28;20205;-82
2023/10/13 02:13:17;;;;;;;5.90;4.10;;;;;;;15.86;79.75;98106.50;5075597;28;20641;-82
2023/10/13 02:15:44;;;;;;;6.30;3.57;;;;;;;15.85;79.27;98113.69;5076776;28;20226;-81
2023/10/13 02:18:11;;;;;;;7.60;4.13;;;;;;;15.82;79.51;98113.13;5075922;28;20653;-81
2023/10/13 02:20:42;;;;;;;5.50;3.70;;;;;;;15.75;80.50;98112.81;5075770;28;20219;-82
2023/10/13 02:23:10;;;;;;;4.97;3.70;;;;;;;15.75;79.99;98111.97;5075433;28;20283;-81
2023/10/13 02:25:42;;;;;;;6.50;3.83;;;;;;;15.73;80.02;98106.78;5075594;28;20318;-82
2023/10/13 02:28:13;;;;;;;4.37;3.57;;;;;;;15.75;79.93;98098.63;5074670;28;20662;-82
2023/10/13 02:30:44;;;;;;;7.00;3.70;;;;;;;15.71;79.09;98086.59;5074731;28;20205;-82
2023/10/13 02:33:12;;;;;;;7.03;3.67;;;;;;;15.62;80.56;98098.06;5073469;28;20215;-82
2023/10/13 02:35:41;;;;;;;6.67;3.90;;;;;;;15.57;81.08;98087.00;5074947;28;20204;-82
2023/10/13 02:38:11;;;;;;;6.33;4.30;;;;;;;15.55;81.56;98091.59;5075803;28;20215;-81
2023/10/13 02:40:37;;;;;;;6.13;3.77;;;;;;;15.52;81.53;98087.41;5075039;28;20649;-82
2023/10/13 02:43:04;;;;;;;6.27;3.67;;;;;;;15.51;81.28;98087.56;5076400;28;20231;-82
2023/10/13 02:45:30;;;;;;;5.43;3.80;;;;;;;15.52;80.93;98086.56;5077885;28;20237;-82
2023/10/13 02:48:12;;;;;;;6.50;4.17;;;;;;;15.49;81.34;98086.84;5078322;28;20302;-82
2023/10/13 02:50:43;;;;;;;7.73;4.20;;;;;;;15.48;81.30;98085.16;5078378;28;20580;-82
2023/10/13 02:53:12;;;;;;;7.00;3.90;;;;;;;15.50;80.72;98072.53;5081184;28;20203;-82
2023/10/13 02:55:39;;;;;;;5.87;4.00;;;;;;;15.46;81.17;98076.47;5082264;28;20203;-82
2023/10/13 02:58:05;;;;;;;5.40;3.87;;;;;;;15.41;81.19;98073.38;5080603;28;20212;-82
2023/10/13 03:00:31;;;;;;;5.53;3.50;;;;;;;15.38;81.38;98076.28;5079333;28;20569;-82
2023/10/13 03:02:59;;;;;;;7.67;4.00;;;;;;;15.32;82.28;98080.34;5078291;28;20257;-81
2023/10/13 03:05:29;;;;;;;6.17;4.00;;;;;;;15.26;82.81;98080.00;5078165;28;20238;-81
2023/10/13 03:07:55;;;;;;;7.40;4.10;;;;;;;15.22;83.07;98075.94;5076305;28;20246;-81
2023/10/13 03:10:21;;;;;;;6.40;4.00;;;;;;;15.16;84.12;98084.47;5076389;28;20221;-80
2023/10/13 03:12:48;;;;;;;7.23;4.13;;;;;;;15.08;85.12;98078.97;5078176;28;20227;-82
2023/10/13 03:15:16;;;;;;;7.10;4.10;;;;;;;15.06;85.68;98088.91;5079132;28;20199;-83
2023/10/13 03:17:44;;;;;;;5.90;4.17;;;;;;;15.05;85.78;98089.91;5079867;28;20238;-83
2023/10/13 03:20:13;;;;;;;7.03;4.63;;;;;;;15.02;86.89;98092.84;5079318;28;20211;-82
2023/10/13 03:22:39;;;;;;;8.57;4.67;;;;;;;14.97;86.77;98087.91;5079448;28;20255;-82
2023/10/13 03:25:08;;;;;;;7.70;5.00;;;;;;;14.89;86.97;98081.56;5079517;28;20230;-83
2023/10/13 03:28:00;;;;;;;6.73;4.57;;;;;;;14.83;87.80;98079.44;5079728;28;20242;-83
2023/10/13 03:30:35;;;;;;;6.43;4.30;;;;;;;14.81;87.85;98081.41;5079208;28;20255;-82
2023/10/13 03:33:06;;;;;;;6.87;4.60;;;;;;;14.81;87.67;98073.41;5078695;28;20309;-82
2023/10/13 03:35:41;;;;;;;8.47;4.90;;;;;;;14.78;88.89;98077.19;5078832;28;20215;-82
2023/10/13 03:38:16;;;;;;;10.50;5.10;;;;;;;14.73;89.38;98083.88;5078049;28;20670;-83
2023/10/13 03:40:48;;;;;;;7.70;5.23;;;;;;;14.72;89.47;98079.56;5078759;28;20268;-82
2023/10/13 03:43:16;;;;;;;8.10;5.33;;;;;;;14.66;89.89;98078.25;5077957;28;20305;-83
2023/10/13 03:45:47;;;;;;;8.53;5.40;;;;;;;14.64;90.13;98080.19;5079974;28;20230;-83
2023/10/13 03:48:28;;;;;;;7.30;4.83;;;;;;;14.62;90.23;98073.31;5079984;28;20666;-83
2023/10/13 03:51:03;;;;;;;6.67;5.13;;;;;;;14.59;90.66;98084.22;5079631;28;20234;-83
2023/10/13 03:53:33;;;;;;;8.47;5.40;;;;;;;14.58;91.04;98077.22;5079479;28;20664;-82
2023/10/13 03:56:08;;;;;;;9.20;5.83;;;;;;;14.56;91.75;98076.50;5079603;28;20219;-83
2023/10/13 03:58:35;;;;;;;8.40;5.27;;;;;;;14.55;91.38;98088.13;5078139;28;20257;-82
2023/10/13 04:01:02;;;;;;;8.77;5.30;;;;;;;14.53;90.85;98074.09;5077155;28;20245;-82
2023/10/13 04:03:42;;;;;;;7.83;5.23;;;;;;;14.52;90.85;98077.75;5076279;28;20211;-82
2023/10/13 04:06:18;;;;;;;8.10;5.10;;;;;;;14.55;90.66;98080.16;5076859;28;20300;-82
2023/10/13 04:09:22;;;;;;;6.97;4.77;;;;;;;14.55;89.49;98072.16;5076919;28;20213;-82
2023/10/13 04:12:19;;;;;;;7.50;5.20;;;;;;;14.52;88.66;98072.41;5076071;28;20231;-82
2023/10/13 04:15:14;;;;;;;6.73;5.10;;;;;;;14.46;89.07;98078.25;5078352;28;20686;-83
2023/10/13 04:17:45;;;;;;;7.63;4.60;;;;;;;14.40;89.69;98081.44;5077178;28;20199;-82
2023/10/13 04:20:13;;;;;;;6.57;4.50;;;;;;;14.36;89.61;98074.72;5077226;28;20215;-82
2023/10/13 04:25:38;;;;;;;6.40;3.90;;;;;;;14.39;88.41;98066.47;5077588;28;20298;-82
2023/10/13 04:28:15;;;;;;;5.73;4.17;;;;;;;14.41;87.85;98070.69;5076818;28;20272;-84
2023/10/13 04:30:57;;;;;;;6.17;4.40;;;;;;;14.42;87.87;98063.56;5077645;28;20264;-82
2023/10/13 04:33:35;;;;;;;7.07;4.63;;;;;;;14.42;87.68;98063.56;5076766;28;20218;-83
2023/10/13 04:36:13;;;;;;;6.97;4.50;;;;;;;14.41;87.38;98056.53;5077165;28;20217;-82
2023/10/13 04:38:55;;;;;;;8.60;4.63;;;;;;;14.36;87.33;98050.78;5077250;28;20218;-82
2023/10/13 04:41:23;;;;;;;9.33;4.53;;;;;;;14.39;87.06;98050.53;5077480;28;20300;-82
2023/10/13 04:44:04;;;;;;;7.43;4.60;;;;;;;14.35;86.93;98049.13;5076544;28;20211;-82
2023/10/13 04:46:54;;;;;;;6.37;4.90;;;;;;;14.32;87.20;98044.03;5076728;28;20249;-82
2023/10/13 04:49:28;;;;;;;6.30;4.33;;;;;;;14.34;87.21;98047.41;5077385;28;20287;-82
2023/10/13 04:52:01;;;;;;;7.50;4.33;;;;;;;14.38;86.96;98043.53;5076826;28;20227;-82
2023/10/13 04:54:45;;;;;;;7.40;4.00;;;;;;;14.43;86.73;98042.13;5077143;28;20200;-82
2023/10/13 04:57:25;;;;;;;6.10;3.50;;;;;;;14.43;85.87;98028.84;5076459;28;20203;-82
2023/10/13 05:03:17;;;;;;;6.10;4.43;;;;;;;14.52;84.58;98024.53;5076045;28;20332;-82
2023/10/13 05:06:10;;;;;;;5.93;4.10;;;;;;;14.45;85.62;98032.22;5075668;28;20263;-82
2023/10/13 05:44:55;;;;;;;10.57;5.53;;;;;;;14.23;90.55;98023.59;5076008;28;20202;-82
2023/10/13 05:47:46;;;;;;;7.37;4.80;;;;;;;14.19;90.83;98033.59;5075967;28;20218;-82
2023/10/13 05:50:29;;;;;;;7.13;4.93;;;;;;;14.22;90.76;98032.50;5075838;28;20306;-81
2023/10/13 06:28:41;;;;;;;9.03;5.20;;;;;;;15.39;85.61;98041.53;5080496;28;20245;-82
2023/10/13 06:31:12;;;;;;;8.57;5.13;;;;;;;15.48;84.79;98037.22;5078295;28;20289;-81
2023/10/13 06:33:45;;;;;;;7.90;4.80;;;;;;;15.56;83.84;98029.34;5078287;28;20196;-82
2023/10/13 06:36:11;;;;;;;7.17;5.03;;;;;;;15.61;83.73;98027.13;5079536;28;20207;-80
2023/10/13 06:38:38;;;;;;;8.70;5.00;;;;;;;15.71;83.15;98033.31;5078694;28;20207;-80
2023/10/13 06:41:05;;;;;;;10.63;5.47;;;;;;;15.77;82.19;98024.75;5077191;28;20235;-80
2023/10/13 06:43:39;;;;;;;8.57;5.30;;;;;;;15.79;82.01;98020.09;5078320;28;20216;-80
2023/10/13 06:46:05;;;;;;;9.77;5.03;;;;;;;15.84;81.59;98023.19;5079730;28;20233;-81
2023/10/13 06:48:33;;;;;;;9.93;5.50;;;;;;;15.87;81.09;98018.44;5079797;28;20218;-81
2023/10/13 06:51:04;;;;;;;7.57;5.17;;;;;;;15.86;80.85;98013.22;5079837;28;20227;-81
2023/10/13 06:53:36;;;;;;;7.47;4.73;;;;;;;15.83;81.30;98021.53;5080678;28;20207;-81
2023/10/13 06:56:04;;;;;;;8.97;4.70;;;;;;;15.80;81.52;98027.13;5081452;28;20204;-81
2023/10/13 06:58:32;;;;;;;9.97;5.43;;;;;;;15.75;81.53;98016.03;5080095;28;20569;-81
2023/10/13 07:00:59;;;;;;;9.30;5.17;;;;;;;15.68;81.71;98018.44;5077556;28;20223;-83
2023/10/13 07:03:25;;;;;;;9.80;5.30;;;;;;;15.64;81.87;98016.19;5076427;28;20207;-83
2023/10/13 07:05:53;;;;;;;7.80;5.50;;;;;;;15.69;81.16;98029.91;5075878;28;20238;-82
2023/10/13 07:08:21;;;;;;;8.03;5.10;;;;;;;15.63;82.06;98019.84;5075709;28;20601;-82
2023/10/13 07:10:51;;;;;;;10.00;5.43;;;;;;;15.65;81.88;98023.22;5075975;28;20729;-83
2023/10/13 07:13:19;;;;;;;8.80;4.87;;;;;;;15.69;81.50;98024.59;5075425;28;20210;-83
2023/10/13 07:15:46;;;;;;;7.47;4.97;;;;;;;15.73;81.92;98034.00;5076151;28;20563;-83
2023/10/13 07:18:15;;;;;;;8.50;5.03;;;;;;;15.71;82.53;98025.31;5075301;28;20211;-83
2023/10/13 07:20:45;;;;;;;9.40;5.10;;;;;;;15.75;82.74;98029.34;5076244;28;20207;-83
2023/10/13 07:23:17;;;;;;;6.83;4.97;;;;;;;15.82;82.11;98030.50;5075312;28;20218;-83
2023/10/13 07:25:53;;;;;;;9.70;5.27;;;;;;;15.87;82.10;98026.41;5076069;28;20215;-85
2023/10/13 07:28:20;;;;;;;9.27;5.20;;;;;;;15.96;81.65;98022.06;5076061;28;20207;-83
2023/10/13 07:31:11;;;;;;;10.80;4.97;;;;;;;16.04;81.55;98021.19;5077241;28;20208;-82
2023/10/13 07:33:37;;;;;;;8.70;4.97;;;;;;;16.18;80.83;98022.59;5076351;28;20291;-82
2023/10/13 07:36:11;;;;;;;6.27;4.53;;;;;;;16.30;80.37;98018.78;5077162;28;20207;-83
2023/10/13 07:38:37;;;;;;;8.40;4.90;;;;;;;16.35;79.67;98020.00;5078709;28;20211;-83
2023/10/13 07:41:08;;;;;;;6.90;4.63;;;;;;;16.44;78.96;98013.84;5080528;28;20701;-83
2023/10/13 07:43:37;;;;;;;7.20;4.57;;;;;;;16.50;78.07;98005.28;5079560;28;20271;-82
2023/10/13 07:46:09;;;;;;;7.83;4.83;;;;;;;16.69;76.65;98005.19;5074931;28;20602;-82
2023/10/13 07:48:36;;;;;;;6.77;5.00;;;;;;;16.75;75.81;98001.09;5073153;28;20203;-82
2023/10/13 07:51:06;;;;;;;7.53;4.87;;;;;;;16.85;75.89;97997.41;5074481;28;20701;-82
2023/10/13 07:53:35;;;;;;;9.90;5.10;;;;;;;16.96;76.55;98007.88;5071369;28;20324;-82
2023/10/13 07:56:04;;;;;;;8.63;4.63;;;;;;;17.13;74.28;97991.06;5073417;28;20215;-82
2023/10/13 07:58:33;;;;;;;8.37;5.13;;;;;;;17.25;74.34;98000.53;5071848;28;20610;-82
2023/10/13 08:01:07;;;;;;;6.60;4.43;;;;;;;17.37;73.56;97991.34;5072422;28;20235;-82
2023/10/13 08:03:44;;;;;;;7.83;4.80;;;;;;;17.48;72.90;97977.78;5072370;28;20247;-82
2023/10/13 08:06:20;;;;;;;7.27;5.07;;;;;;;17.61;71.94;97980.91;5073157;28;20256;-77
2023/10/13 08:08:49;;;;;;;8.50;4.83;;;;;;;17.71;70.52;97965.63;5073581;28;20325;-82
2023/10/13 08:11:26;;;;;;;7.90;4.50;;;;;;;17.83;68.80;97964.41;5073490;28;20231;-82
2023/10/13 08:13:58;;;;;;;11.13;5.60;;;;;;;17.97;67.79;97960.31;5074082;28;20199;-83
2023/10/13 08:16:30;;;;;;;9.43;5.30;;;;;;;18.05;67.16;97949.69;5074319;28;20592;-83
2023/10/13 08:19:01;;;;;;;8.03;5.10;;;;;;;18.11;66.92;97957.91;5073761;28;20831;-77
2023/10/13 08:21:31;;;;;;;8.40;4.57;;;;;;;18.20;67.32;97956.97;5074596;28;20250;-82
2023/10/13 08:23:59;;;;;;;7.07;4.30;;;;;;;18.27;66.70;97955.34;5074453;28;20301;-79
2023/10/13 08:26:38;;;;;;;8.43;4.40;;;;;;;18.32;65.01;97949.56;5075184;28;20288;-82
2023/10/13 08:42:12;;;;;;;6.97;4.23;;;;;;;18.94;62.99;97931.28;5968636;22;20232;-81
2023/10/13 08:44:47;;;;;;;7.70;3.70;;;;;;;19.10;61.88;97920.63;5054124;28;20208;-82
2023/10/13 08:47:17;;;;;;;6.23;3.90;;;;;;;19.25;61.34;97919.00;5053363;28;20229;-82
2023/10/13 08:49:50;;;;;;;8.10;3.30;;;;;;;19.45;60.04;97909.63;5052588;28;20210;-82
2023/10/13 08:57:49;;;;;;;6.80;3.40;;;;;;;20.01;56.91;97890.00;5051568;28;20222;-83
2023/10/13 09:00:55;;;;;;;5.67;3.63;;;;;;;20.16;55.25;97878.44;5053467;28;20208;-83
2023/10/13 09:03:38;;;;;;;6.03;3.10;;;;;;;20.36;55.18;97887.75;5054260;28;20221;-81
2023/10/13 09:06:06;;;;;;;4.83;3.00;;;;;;;20.47;55.01;97882.03;5057016;28;20227;-81
2023/10/13 09:08:44;;;;;;;5.07;3.20;;;;;;;20.58;54.15;97889.72;5057967;28;20212;-81
2023/10/13 09:11:13;;;;;;;8.67;3.10;;;;;;;20.67;53.19;97917.38;5058225;28;20319;-83
2023/10/13 09:13:46;;;;;;;8.00;3.10;;;;;;;20.89;52.68;97919.31;5056754;28;20207;-81
2023/10/13 09:16:22;;;;;;;7.67;3.60;;;;;;;21.08;51.93;97908.97;5055512;28;20207;-81
2023/10/13 09:18:52;;;;;;;5.50;2.93;;;;;;;21.20;51.42;97915.63;5055201;28;20578;-82
2023/10/13 09:21:43;;;;;;;5.40;3.20;;;;;;;21.31;51.70;97915.22;5053037;28;20232;-82
2023/10/13 09:24:27;;;;;;;5.23;3.03;;;;;;;21.45;50.51;97906.38;5052907;28;20313;-82
2023/10/13 09:26:55;;;;;;;5.70;3.20;;;;;;;21.56;50.34;97913.19;5052807;28;20239;-82
2023/10/13 09:29:24;;;;;;;7.33;3.20;;;;;;;21.66;49.72;97911.94;5052963;28;20692;-82
2023/10/13 09:32:03;;;;;;;5.63;2.80;;;;;;;21.75;49.75;97902.81;5052978;28;20234;-82
2023/10/13 09:34:33;;;;;;;5.33;3.10;;;;;;;21.83;50.07;97908.13;5052841;28;20207;-82
2023/10/13 09:36:59;;;;;;;6.17;2.93;;;;;;;22.02;49.95;97904.94;5053231;28;20204;-82
2023/10/13 09:39:44;;;;;;;4.17;2.73;;;;;;;22.13;49.18;97900.97;5053123;28;20835;-82
2023/10/13 09:42:10;;;;;;;5.20;3.10;;;;;;;22.21;48.96;97888.25;5052081;28;20272;-82
2023/10/13 09:44:40;;;;;;;4.43;2.60;;;;;;;22.30;48.40;97881.75;5053223;28;20219;-82
2023/10/13 09:47:17;;;;;;;5.13;3.10;;;;;;;22.25;49.41;97886.84;5052508;28;20605;-82
2023/10/13 09:49:49;;;;;;;5.50;2.80;;;;;;;22.16;49.50;97882.59;5052723;28;20211;-82
2023/10/13 09:52:20;;;;;;;3.80;3.03;;;;;;;22.21;48.83;97874.78;5051436;28;20334;-82
2023/10/13 09:55:00;;;;;;;6.27;2.97;;;;;;;22.24;48.91;97877.09;5052138;28;20302;-83
2023/10/13 09:57:34;;;;;;;5.63;3.07;;;;;;;22.44;48.83;97872.84;5052929;28;20211;-84
2023/10/13 10:03:03;;;;;;;5.83;2.80;;;;;;;22.92;45.89;97855.25;5057031;28;20206;-82
2023/10/13 10:05:34;;;;;;;4.27;2.70;;;;;;;23.05;45.21;97850.00;5057202;28;20322;-82
2023/10/13 10:08:01;;;;;;;4.03;2.60;;;;;;;23.23;43.69;97836.97;5057267;28;20212;-81
2023/10/13 10:10:48;;;;;;;6.67;2.60;;;;;;;23.40;42.80;97833.81;5057521;28;20230;-81
2023/10/13 10:13:23;;;;;;;4.33;2.40;;;;;;;23.52;42.55;97826.88;5056628;28;20214;-82
2023/10/13 10:15:54;;;;;;;3.83;2.70;;;;;;;23.62;42.32;97835.47;5056960;28;20207;-80
2023/10/13 10:18:25;;;;;;;3.20;2.30;;;;;;;23.81;41.41;97829.41;5056879;28;20193;-82
2023/10/13 10:20:54;;;;;;;4.20;2.53;;;;;;;23.99;41.32;97819.00;5058385;28;20228;-82
2023/10/13 10:23:26;;;;;;;3.77;2.47;;;;;;;24.16;40.73;97811.41;5058552;28;20216;-81
2023/10/13 10:26:04;;;;;;;3.87;2.50;;;;;;;24.27;41.56;97825.19;5040630;28;20777;-81
2023/10/13 10:28:36;;;;;;;5.03;2.57;;;;;;;24.21;41.59;97823.28;5057441;28;20215;-81
2023/10/13 10:31:09;;;;;;;7.60;3.07;;;;;;;24.14;40.72;97819.69;5056406;28;20227;-81
2023/10/13 10:33:37;;;;;;;6.60;2.50;;;;;;;24.02;40.81;97810.47;5056316;28;20254;-81
2023/10/13 10:36:05;;;;;;;3.13;2.43;;;;;;;23.87;41.51;97815.16;5056654;28;20204;-81
2023/10/13 10:38:34;;;;;;;7.70;2.53;;;;;;;23.84;40.57;97804.72;5056793;28;20211;-81
2023/10/13 10:41:04;;;;;;;5.30;3.00;;;;;;;23.79;40.58;97801.78;5055959;28;20289;-81
2023/10/13 10:43:45;;;;;;;4.53;2.77;;;;;;;23.76;41.48;97801.31;5055191;28;20319;-81
2023/10/13 10:46:13;;;;;;;5.43;2.73;;;;;;;23.73;41.35;97797.19;5056177;28;20698;-82
2023/10/13 10:48:43;;;;;;;4.80;2.57;;;;;;;23.75;41.75;97795.09;5056962;28;20204;-82
2023/10/13 10:51:21;;;;;;;4.93;2.43;;;;;;;23.85;41.68;97794.75;5057745;28;20306;-82
2023/10/13 10:53:49;;;;;;;5.63;2.63;;;;;;;23.82;41.56;97793.28;5055700;28;20211;-80
2023/10/13 10:56:36;;;;;;;6.13;2.80;;;;;;;23.78;41.76;97786.59;5056234;28;20349;-81
2023/10/13 10:59:04;;;;;;;7.23;2.70;;;;;;;23.88;40.95;97778.19;5056519;28;20530;-81
2023/10/13 11:01:38;;;;;;;4.80;2.30;;;;;;;23.90;41.26;97785.06;5056392;28;20723;-82
2023/10/13 11:04:14;;;;;;;4.43;2.20;;;;;;;23.98;40.81;97773.28;5058989;28;20205;-83
2023/10/13 11:06:46;;;;;;;4.83;2.70;;;;;;;23.96;41.19;97768.06;5062317;28;20267;-81
2023/10/13 11:09:21;;;;;;;5.17;2.57;;;;;;;24.18;40.66;97763.41;5060537;28;20299;-81
2023/10/13 11:11:52;;;;;;;7.90;3.60;;;;;;;24.31;40.67;97755.41;5060852;28;20253;-81
2023/10/13 11:14:22;;;;;;;4.17;2.23;;;;;;;24.44;40.01;97741.97;5062149;28;20208;-81
2023/10/13 11:16:54;;;;;;;4.23;2.37;;;;;;;24.40;40.29;97744.22;5063855;28;20618;-81
2023/10/13 11:19:27;;;;;;;3.83;2.50;;;;;;;24.55;39.25;97742.19;5064153;28;20208;-81
2023/10/13 11:21:55;;;;;;;4.23;2.20;;;;;;;24.69;39.61;97743.13;5062303;28;20588;-81
2023/10/13 11:24:22;;;;;;;4.33;2.37;;;;;;;24.84;38.93;97732.94;5062477;28;20212;-81
2023/10/13 11:26:50;;;;;;;5.63;2.60;;;;;;;24.92;39.33;97733.59;5062011;28;20601;-81
2023/10/13 11:29:18;;;;;;;4.90;2.33;;;;;;;25.01;39.34;97735.09;5062305;28;20212;-81
2023/10/13 11:31:45;;;;;;;5.53;2.60;;;;;;;25.10;38.67;97728.44;5062145;28;20228;-80
2023/10/13 11:34:17;;;;;;;3.77;2.27;;;;;;;25.20;37.94;97718.03;5062731;28;20222;-81
2023/10/13 11:36:45;;;;;;;4.00;2.40;;;;;;;25.32;37.89;97721.81;5062281;28;20208;-81
2023/10/13 11:39:17;;;;;;;5.47;2.80;;;;;;;25.41;36.98;97719.75;5060102;28;20428;-81
2023/10/13 11:41:50;;;;;;;3.63;2.27;;;;;;;25.43;37.24;97713.06;5055999;28;20262;-82
2023/10/13 11:44:26;;;;;;;4.57;2.63;;;;;;;25.60;37.25;97708.06;5058433;28;20212;-82
2023/10/13 11:47:07;;;;;;;4.80;2.30;;;;;;;25.70;37.68;97714.72;5058918;28;20322;-80
2023/10/13 11:49:37;;;;;;;6.27;2.73;;;;;;;25.75;37.74;97712.22;5056776;28;20312;-80
2023/10/13 11:54:51;;;;;;;2.80;2.13;;;;;;;26.09;36.24;97684.84;5049808;28;20200;-80
2023/10/13 11:57:19;;;;;;;3.83;2.67;;;;;;;26.08;36.20;97702.16;5054596;28;20205;-80
2023/10/13 11:59:53;;;;;;;2.87;2.40;;;;;;;26.19;35.49;97685.25;5054154;28;20694;-80
2023/10/13 12:05:12;;;;;;;4.67;2.83;;;;;;;26.32;34.93;97677.06;5057439;28;20271;-79
2023/10/13 12:07:48;;;;;;;4.97;2.50;;;;;;;26.29;34.83;97672.06;5057221;28;20527;-79
2023/10/13 12:10:32;;;;;;;5.82;2.38;;;;;;;26.33;35.35;97680.59;5058280;28;20214;-79
2023/10/13 12:13:05;;;;;;;3.67;2.47;;;;;;;26.38;34.81;97680.75;5058108;28;20208;-79
2023/10/13 12:15:36;;;;;;;6.50;2.47;;;;;;;26.32;34.83;97670.78;5058663;28;20628;-79
2023/10/13 12:18:04;;;;;;;5.63;2.90;;;;;;;26.38;35.41;97668.06;5058130;28;20552;-79
2023/10/13 12:20:35;;;;;;;3.70;2.67;;;;;;;26.35;35.48;97667.66;5058093;28;20211;-80
2023/10/13 12:23:17;;;;;;;2.80;2.25;;;;;;;26.45;34.84;97660.72;5057371;28;20207;-79
2023/10/13 12:25:57;;;;;;;4.63;2.30;;;;;;;26.41;35.33;97653.25;5057623;28;20670;-80
2023/10/13 12:28:26;;;;;;;6.53;2.60;;;;;;;26.43;34.61;97651.13;5058648;28;20218;-79
2023/10/13 12:30:54;;;;;;;3.53;2.37;;;;;;;26.37;34.93;97658.28;5058264;28;20238;-79
2023/10/13 12:33:27;;;;;;;5.20;2.63;;;;;;;26.32;35.51;97662.66;5057783;28;20822;-79
2023/10/13 12:36:27;;;;;;;5.00;2.40;;;;;;;26.26;35.60;97649.97;5057487;28;20208;-79
2023/10/13 12:49:57;;;;;;;4.60;2.38;;;;;;;26.45;35.26;97625.50;5063554;28;20240;-79
2023/10/13 12:52:26;;;;;;;4.68;2.60;;;;;;;26.46;35.72;97619.00;5062680;28;20239;-79
2023/10/13 12:55:06;;;;;;;5.47;2.50;;;;;;;26.47;35.02;97612.56;5062595;28;20265;-79
2023/10/13 12:57:33;;;;;;;4.95;2.60;;;;;;;26.67;34.71;97621.44;5061951;28;20200;-79
2023/10/13 13:00:00;;;;;;;5.90;2.37;;;;;;;26.80;34.66;97624.03;5063057;28;20620;-79
2023/10/13 13:02:29;;;;;;;8.02;2.78;;;;;;;26.93;34.35;97604.94;5056983;28;20232;-80
2023/10/13 13:05:05;;;;;;;3.95;2.72;;;;;;;27.16;34.53;97605.22;5059665;28;20440;-80
2023/10/13 13:07:42;;;;;;;3.03;2.40;;;;;;;27.19;33.82;97610.19;5062883;28;20722;-80
2023/10/13 13:10:11;;;;;;;4.70;2.17;;;;;;;27.09;33.86;97588.94;5063265;28;20203;-80
2023/10/13 13:12:38;;;;;;;5.25;2.80;;;;;;;27.00;34.54;97592.16;5063492;28;20232;-80
2023/10/13 13:15:08;;;;;;;4.30;2.47;;;;;;;27.00;34.64;97589.44;5062561;28;20208;-80
2023/10/13 13:17:35;;;;;;;3.53;2.20;;;;;;;27.07;33.94;97578.56;5061755;28;20215;-80
2023/10/13 13:20:10;;;;;;;3.38;2.15;;;;;;;27.07;34.21;97584.78;5061246;28;20215;-80
2023/10/13 13:22:37;;;;;;;4.72;2.40;;;;;;;27.11;34.10;97580.59;5060307;28;20241;-80
2023/10/13 13:25:07;;;;;;;5.72;2.47;;;;;;;27.03;34.36;97583.59;5062678;28;20218;-80
2023/10/13 13:27:36;;;;;;;3.95;2.20;;;;;;;26.97;34.36;97581.78;5062072;28;20651;-79
2023/10/13 13:30:11;;;;;;;5.50;2.55;;;;;;;26.92;34.22;97570.75;5062832;28;20275;-79
2023/10/13 13:32:38;;;;;;;3.97;2.30;;;;;;;26.97;33.72;97562.78;5061766;28;20776;-79
2023/10/13 13:35:06;;;;;;;4.32;2.50;;;;;;;26.95;33.69;97559.44;5062483;28;20385;-79
2023/10/13 13:37:32;;;;;;;3.58;2.28;;;;;;;26.98;32.90;97541.91;5062620;28;20242;-79
2023/10/13 13:40:14;;;;;;;5.88;2.47;;;;;;;27.14;32.17;97531.31;5058502;28;20752;-79
2023/10/13 13:42:43;;;;;;;4.40;2.25;;;;;;;27.09;32.02;97525.72;5035881;28;20248;-79
2023/10/13 13:45:21;;;;;;;5.55;2.58;;;;;;;27.11;32.17;97529.03;5042392;28;20219;-79
2023/10/13 13:47:53;;;;;;;5.53;2.30;;;;;;;27.05;32.23;97519.09;5059458;28;20702;-79
2023/10/13 13:50:24;;;;;;;3.90;2.28;;;;;;;27.08;32.31;97517.81;5048171;28;20220;-79
2023/10/13 13:52:52;;;;;;;5.30;2.67;;;;;;;27.00;32.19;97513.50;5040129;28;20229;-79